sensor_id;sensor_type;location;lat;lon;timestamp;temperature;humidity
7117;DHT22;3600;48.568;7.870;2023-05-09T00:01:19;16.90;99.90
7117;DHT22;3600;48.568;7.870;2023-05-09T00:03:46;16.90;99.90
7117;DHT22;3600;48.568;7.870;2023-05-09T00:06:13;16.80;99.90
7117;DHT22;3600;48.568;7.870;2023-05-09T00:08:41;16.80;99.90
7117;DHT22;3600;48.568;7.870;2023-05-09T00:11:08;16.90;99.90
7117;DHT22;3600;48.568;7.870;2023-05-09T00:13:34;16.90;99.90
7117;DHT22;3600;48.568;7.870;2023-05-09T00:16:03;16.90;99.90
7117;DHT22;3600;48.568;7.870;2023-05-09T00:18:31;16.90;99.90
7117;DHT22;3600;48.568;7.870;2023-05-09T00:20:59;16.80;99.90
7117;DHT22;3600;48.568;7.870;2023-05-09T00:23:27;16.80;99.90
7117;DHT22;3600;48.568;7.870;2023-05-09T00:25:54;16.80;99.90
7117;DHT22;3600;48.568;7.870;2023-05-09T00:28:21;16.80;99.90
7117;DHT22;3600;48.568;7.870;2023-05-09T00:30:47;16.80;99.90
7117;DHT22;3600;48.568;7.870;2023-05-09T00:33:14;16.80;99.90
7117;DHT22;3600;48.568;7.870;2023-05-09T00:35:41;16.80;99.90
7117;DHT22;3600;48.568;7.870;2023-05-09T00:38:07;16.80;99.90
7117;DHT22;3600;48.568;7.870;2023-05-09T00:40:34;16.80;99.90
7117;DHT22;3600;48.568;7.870;2023-05-09T00:43:01;16.80;99.90
7117;DHT22;3600;48.568;7.870;2023-05-09T00:45:28;16.80;99.90
7117;DHT22;3600;48.568;7.870;2023-05-09T00:47:55;16.80;99.90
7117;DHT22;3600;48.568;7.870;2023-05-09T00:50:23;16.70;99.90
7117;DHT22;3600;48.568;7.870;2023-05-09T00:52:50;16.70;99.90
7117;DHT22;3600;48.568;7.870;2023-05-09T00:55:18;16.70;99.90
7117;DHT22;3600;48.568;7.870;2023-05-09T00:57:44;16.70;99.90
7117;DHT22;3600;48.568;7.870;2023-05-09T01:00:12;16.70;99.90
7117;DHT22;3600;48.568;7.870;2023-05-09T01:02:45;16.70;99.90
7117;DHT22;3600;48.568;7.870;2023-05-09T01:05:13;16.60;99.90
7117;DHT22;3600;48.568;7.870;2023-05-09T01:07:59;16.60;99.90
7117;DHT22;3600;48.568;7.870;2023-05-09T01:11:02;16.70;99.90
7117;DHT22;3600;48.568;7.870;2023-05-09T01:16:46;16.60;99.90
7117;DHT22;3600;48.568;7.870;2023-05-09T01:22:01;16.40;99.90
7117;DHT22;3600;48.568;7.870;2023-05-09T01:30:33;16.40;99.90
7117;DHT22;3600;48.568;7.870;2023-05-09T01:33:06;16.40;99.90
7117;DHT22;3600;48.568;7.870;2023-05-09T01:35:35;16.40;99.90
7117;DHT22;3600;48.568;7.870;2023-05-09T01:38:13;16.40;99.90
7117;DHT22;3600;48.568;7.870;2023-05-09T01:40:41;16.40;99.90
7117;DHT22;3600;48.568;7.870;2023-05-09T01:43:11;16.30;99.90
7117;DHT22;3600;48.568;7.870;2023-05-09T01:45:40;16.30;99.90
7117;DHT22;3600;48.568;7.870;2023-05-09T01:48:09;16.30;99.90
7117;DHT22;3600;48.568;7.870;2023-05-09T01:50:36;16.40;99.90
7117;DHT22;3600;48.568;7.870;2023-05-09T01:53:05;16.40;99.90
7117;DHT22;3600;48.568;7.870;2023-05-09T01:55:34;16.40;99.90
7117;DHT22;3600;48.568;7.870;2023-05-09T01:58:05;16.40;99.90
7117;DHT22;3600;48.568;7.870;2023-05-09T02:00:33;16.30;99.90
7117;DHT22;3600;48.568;7.870;2023-05-09T02:03:07;16.30;99.90
7117;DHT22;3600;48.568;7.870;2023-05-09T02:05:35;16.30;99.90
7117;DHT22;3600;48.568;7.870;2023-05-09T02:08:02;16.10;99.90
7117;DHT22;3600;48.568;7.870;2023-05-09T02:10:29;16.00;99.90
7117;DHT22;3600;48.568;7.870;2023-05-09T02:12:56;16.10;99.90
7117;DHT22;3600;48.568;7.870;2023-05-09T02:15:24;16.10;99.90
7117;DHT22;3600;48.568;7.870;2023-05-09T02:17:51;16.00;99.90
7117;DHT22;3600;48.568;7.870;2023-05-09T02:20:18;16.00;99.90
7117;DHT22;3600;48.568;7.870;2023-05-09T02:22:45;16.10;99.90
7117;DHT22;3600;48.568;7.870;2023-05-09T02:25:13;16.10;99.90
7117;DHT22;3600;48.568;7.870;2023-05-09T02:27:45;16.10;99.90
7117;DHT22;3600;48.568;7.870;2023-05-09T02:30:18;16.20;99.90
7117;DHT22;3600;48.568;7.870;2023-05-09T02:32:52;16.10;99.90
7117;DHT22;3600;48.568;7.870;2023-05-09T02:35:21;16.10;99.90
7117;DHT22;3600;48.568;7.870;2023-05-09T02:37:49;16.20;99.90
7117;DHT22;3600;48.568;7.870;2023-05-09T02:40:17;16.10;99.90
7117;DHT22;3600;48.568;7.870;2023-05-09T02:42:44;16.10;99.90
7117;DHT22;3600;48.568;7.870;2023-05-09T02:45:11;16.10;99.90
7117;DHT22;3600;48.568;7.870;2023-05-09T02:47:38;16.10;99.90
7117;DHT22;3600;48.568;7.870;2023-05-09T02:50:06;16.10;99.90
7117;DHT22;3600;48.568;7.870;2023-05-09T02:52:32;16.10;99.90
7117;DHT22;3600;48.568;7.870;2023-05-09T02:54:59;16.10;99.90
7117;DHT22;3600;48.568;7.870;2023-05-09T02:57:26;16.10;99.90
7117;DHT22;3600;48.568;7.870;2023-05-09T02:59:52;16.10;99.90
7117;DHT22;3600;48.568;7.870;2023-05-09T03:02:19;16.00;99.90
7117;DHT22;3600;48.568;7.870;2023-05-09T03:04:46;16.10;99.90
7117;DHT22;3600;48.568;7.870;2023-05-09T03:07:13;16.00;99.90
7117;DHT22;3600;48.568;7.870;2023-05-09T03:09:40;16.00;99.90
7117;DHT22;3600;48.568;7.870;2023-05-09T03:12:07;15.90;99.90
7117;DHT22;3600;48.568;7.870;2023-05-09T03:14:33;15.90;99.90
7117;DHT22;3600;48.568;7.870;2023-05-09T03:17:00;15.90;99.90
7117;DHT22;3600;48.568;7.870;2023-05-09T03:19:27;15.90;99.90
7117;DHT22;3600;48.568;7.870;2023-05-09T03:21:54;15.90;99.90
7117;DHT22;3600;48.568;7.870;2023-05-09T03:24:20;15.90;99.90
7117;DHT22;3600;48.568;7.870;2023-05-09T03:26:47;15.90;99.90
7117;DHT22;3600;48.568;7.870;2023-05-09T03:29:14;16.00;99.90
7117;DHT22;3600;48.568;7.870;2023-05-09T03:31:40;16.10;99.90
7117;DHT22;3600;48.568;7.870;2023-05-09T03:34:07;16.10;99.90
7117;DHT22;3600;48.568;7.870;2023-05-09T03:36:41;16.10;99.90
7117;DHT22;3600;48.568;7.870;2023-05-09T03:39:09;16.10;99.90
7117;DHT22;3600;48.568;7.870;2023-05-09T03:41:36;16.20;99.90
7117;DHT22;3600;48.568;7.870;2023-05-09T03:44:03;16.20;99.90
7117;DHT22;3600;48.568;7.870;2023-05-09T03:46:30;16.20;99.90
7117;DHT22;3600;48.568;7.870;2023-05-09T03:48:57;16.20;99.90
7117;DHT22;3600;48.568;7.870;2023-05-09T03:51:24;16.30;99.90
7117;DHT22;3600;48.568;7.870;2023-05-09T03:53:50;16.30;99.90
7117;DHT22;3600;48.568;7.870;2023-05-09T03:56:17;16.30;99.90
7117;DHT22;3600;48.568;7.870;2023-05-09T03:58:44;16.30;99.90
7117;DHT22;3600;48.568;7.870;2023-05-09T04:01:10;16.30;99.90
7117;DHT22;3600;48.568;7.870;2023-05-09T04:03:37;16.30;99.90
7117;DHT22;3600;48.568;7.870;2023-05-09T04:06:04;16.30;99.90
7117;DHT22;3600;48.568;7.870;2023-05-09T04:08:31;16.30;99.90
7117;DHT22;3600;48.568;7.870;2023-05-09T04:10:58;16.30;99.90
7117;DHT22;3600;48.568;7.870;2023-05-09T04:13:25;16.30;99.90
7117;DHT22;3600;48.568;7.870;2023-05-09T04:15:52;16.30;99.90
7117;DHT22;3600;48.568;7.870;2023-05-09T04:18:18;16.30;99.90
7117;DHT22;3600;48.568;7.870;2023-05-09T04:20:45;16.30;99.90
7117;DHT22;3600;48.568;7.870;2023-05-09T04:23:12;16.30;99.90
7117;DHT22;3600;48.568;7.870;2023-05-09T04:25:39;16.30;99.90
7117;DHT22;3600;48.568;7.870;2023-05-09T04:28:05;16.40;99.90
7117;DHT22;3600;48.568;7.870;2023-05-09T04:30:32;16.40;99.90
7117;DHT22;3600;48.568;7.870;2023-05-09T04:32:59;16.30;99.90
7117;DHT22;3600;48.568;7.870;2023-05-09T04:35:26;16.30;99.90
7117;DHT22;3600;48.568;7.870;2023-05-09T04:37:53;16.40;99.90
7117;DHT22;3600;48.568;7.870;2023-05-09T04:40:19;16.40;99.90
7117;DHT22;3600;48.568;7.870;2023-05-09T04:42:46;16.40;99.90
7117;DHT22;3600;48.568;7.870;2023-05-09T04:45:13;16.40;99.90
7117;DHT22;3600;48.568;7.870;2023-05-09T04:47:41;16.50;99.90
7117;DHT22;3600;48.568;7.870;2023-05-09T04:50:08;16.50;99.90
7117;DHT22;3600;48.568;7.870;2023-05-09T04:52:35;16.50;99.90
7117;DHT22;3600;48.568;7.870;2023-05-09T04:55:02;16.50;99.90
7117;DHT22;3600;48.568;7.870;2023-05-09T04:57:29;16.50;99.90
7117;DHT22;3600;48.568;7.870;2023-05-09T04:59:55;16.50;99.90
7117;DHT22;3600;48.568;7.870;2023-05-09T05:02:22;16.50;99.90
7117;DHT22;3600;48.568;7.870;2023-05-09T05:04:50;16.50;99.90
7117;DHT22;3600;48.568;7.870;2023-05-09T05:07:25;16.50;99.90
7117;DHT22;3600;48.568;7.870;2023-05-09T05:09:52;16.50;99.90
7117;DHT22;3600;48.568;7.870;2023-05-09T05:12:19;16.50;99.90
7117;DHT22;3600;48.568;7.870;2023-05-09T05:14:46;16.50;99.90
7117;DHT22;3600;48.568;7.870;2023-05-09T05:17:13;16.50;99.90
7117;DHT22;3600;48.568;7.870;2023-05-09T05:19:40;16.50;99.90
7117;DHT22;3600;48.568;7.870;2023-05-09T05:22:06;16.50;99.90
7117;DHT22;3600;48.568;7.870;2023-05-09T05:24:33;16.50;99.90
7117;DHT22;3600;48.568;7.870;2023-05-09T05:27:00;16.50;99.90
7117;DHT22;3600;48.568;7.870;2023-05-09T05:29:26;16.50;99.90
7117;DHT22;3600;48.568;7.870;2023-05-09T05:31:53;16.50;99.90
7117;DHT22;3600;48.568;7.870;2023-05-09T05:34:20;16.40;99.90
7117;DHT22;3600;48.568;7.870;2023-05-09T05:36:47;16.40;99.90
7117;DHT22;3600;48.568;7.870;2023-05-09T05:39:13;16.40;99.90
7117;DHT22;3600;48.568;7.870;2023-05-09T05:41:40;16.40;99.90
7117;DHT22;3600;48.568;7.870;2023-05-09T05:44:07;16.40;99.90
7117;DHT22;3600;48.568;7.870;2023-05-09T05:46:34;16.50;99.90
7117;DHT22;3600;48.568;7.870;2023-05-09T05:49:03;16.50;99.90
7117;DHT22;3600;48.568;7.870;2023-05-09T05:51:29;16.50;99.90
7117;DHT22;3600;48.568;7.870;2023-05-09T05:53:56;16.50;99.90
7117;DHT22;3600;48.568;7.870;2023-05-09T05:56:23;16.50;99.90
7117;DHT22;3600;48.568;7.870;2023-05-09T05:58:50;16.50;99.90
7117;DHT22;3600;48.568;7.870;2023-05-09T06:01:17;16.50;99.90
7117;DHT22;3600;48.568;7.870;2023-05-09T06:03:43;16.50;99.90
7117;DHT22;3600;48.568;7.870;2023-05-09T06:06:11;16.50;99.90
7117;DHT22;3600;48.568;7.870;2023-05-09T06:08:37;16.50;99.90
7117;DHT22;3600;48.568;7.870;2023-05-09T06:11:04;16.50;99.90
7117;DHT22;3600;48.568;7.870;2023-05-09T06:13:31;16.40;99.90
7117;DHT22;3600;48.568;7.870;2023-05-09T06:15:58;16.50;99.90
7117;DHT22;3600;48.568;7.870;2023-05-09T06:18:37;16.50;99.90
7117;DHT22;3600;48.568;7.870;2023-05-09T06:21:06;16.50;99.90
7117;DHT22;3600;48.568;7.870;2023-05-09T06:23:33;16.50;99.90
7117;DHT22;3600;48.568;7.870;2023-05-09T06:26:04;16.50;99.90
7117;DHT22;3600;48.568;7.870;2023-05-09T06:28:31;16.60;99.90
7117;DHT22;3600;48.568;7.870;2023-05-09T06:31:00;16.60;99.90
7117;DHT22;3600;48.568;7.870;2023-05-09T06:33:27;16.60;99.90
7117;DHT22;3600;48.568;7.870;2023-05-09T06:35:54;16.70;99.90
7117;DHT22;3600;48.568;7.870;2023-05-09T06:38:21;16.70;99.90
7117;DHT22;3600;48.568;7.870;2023-05-09T06:40:48;16.60;99.90
7117;DHT22;3600;48.568;7.870;2023-05-09T06:43:15;16.60;99.90
7117;DHT22;3600;48.568;7.870;2023-05-09T06:45:41;16.60;99.90
7117;DHT22;3600;48.568;7.870;2023-05-09T06:48:08;16.70;99.90
7117;DHT22;3600;48.568;7.870;2023-05-09T06:50:35;16.80;99.90
7117;DHT22;3600;48.568;7.870;2023-05-09T06:53:02;16.80;99.90
7117;DHT22;3600;48.568;7.870;2023-05-09T06:55:29;16.90;99.90
7117;DHT22;3600;48.568;7.870;2023-05-09T06:57:55;16.80;99.90
7117;DHT22;3600;48.568;7.870;2023-05-09T07:00:22;16.90;99.90
7117;DHT22;3600;48.568;7.870;2023-05-09T07:02:49;16.90;99.90
7117;DHT22;3600;48.568;7.870;2023-05-09T07:05:16;16.90;99.90
7117;DHT22;3600;48.568;7.870;2023-05-09T07:07:43;17.00;99.90
7117;DHT22;3600;48.568;7.870;2023-05-09T07:10:10;17.00;99.90
7117;DHT22;3600;48.568;7.870;2023-05-09T07:12:39;17.00;99.90
7117;DHT22;3600;48.568;7.870;2023-05-09T07:15:06;17.10;99.90
7117;DHT22;3600;48.568;7.870;2023-05-09T07:17:33;17.10;99.90
7117;DHT22;3600;48.568;7.870;2023-05-09T07:20:00;17.20;99.90
7117;DHT22;3600;48.568;7.870;2023-05-09T07:22:29;17.20;99.90
7117;DHT22;3600;48.568;7.870;2023-05-09T07:24:58;17.30;99.90
7117;DHT22;3600;48.568;7.870;2023-05-09T07:27:25;17.30;99.90
7117;DHT22;3600;48.568;7.870;2023-05-09T07:29:52;17.30;99.90
7117;DHT22;3600;48.568;7.870;2023-05-09T07:32:18;17.40;99.90
7117;DHT22;3600;48.568;7.870;2023-05-09T07:34:46;17.50;99.90
7117;DHT22;3600;48.568;7.870;2023-05-09T07:37:12;17.50;99.90
7117;DHT22;3600;48.568;7.870;2023-05-09T07:39:41;17.60;99.90
7117;DHT22;3600;48.568;7.870;2023-05-09T07:42:08;17.70;99.90
7117;DHT22;3600;48.568;7.870;2023-05-09T07:44:35;17.80;99.90
7117;DHT22;3600;48.568;7.870;2023-05-09T07:47:02;17.80;99.90
7117;DHT22;3600;48.568;7.870;2023-05-09T07:49:31;17.80;99.90
7117;DHT22;3600;48.568;7.870;2023-05-09T07:51:58;17.90;99.90
7117;DHT22;3600;48.568;7.870;2023-05-09T07:54:25;17.90;99.90
7117;DHT22;3600;48.568;7.870;2023-05-09T07:56:52;17.90;99.90
7117;DHT22;3600;48.568;7.870;2023-05-09T07:59:20;18.00;99.90
7117;DHT22;3600;48.568;7.870;2023-05-09T08:01:46;18.00;99.90
7117;DHT22;3600;48.568;7.870;2023-05-09T08:04:14;18.00;99.90
7117;DHT22;3600;48.568;7.870;2023-05-09T08:06:40;18.10;99.90
7117;DHT22;3600;48.568;7.870;2023-05-09T08:09:07;18.20;99.90
7117;DHT22;3600;48.568;7.870;2023-05-09T08:11:34;18.20;99.90
7117;DHT22;3600;48.568;7.870;2023-05-09T08:14:01;18.30;99.90
7117;DHT22;3600;48.568;7.870;2023-05-09T08:16:28;18.30;99.90
7117;DHT22;3600;48.568;7.870;2023-05-09T08:18:55;18.30;99.90
7117;DHT22;3600;48.568;7.870;2023-05-09T08:21:21;18.40;99.90
7117;DHT22;3600;48.568;7.870;2023-05-09T08:23:48;18.50;99.90
7117;DHT22;3600;48.568;7.870;2023-05-09T08:26:15;18.60;99.90
7117;DHT22;3600;48.568;7.870;2023-05-09T08:28:42;18.60;99.90
7117;DHT22;3600;48.568;7.870;2023-05-09T08:31:09;18.60;99.90
7117;DHT22;3600;48.568;7.870;2023-05-09T08:33:36;18.60;99.90
7117;DHT22;3600;48.568;7.870;2023-05-09T08:36:05;18.60;99.90
7117;DHT22;3600;48.568;7.870;2023-05-09T08:38:32;18.70;99.90
7117;DHT22;3600;48.568;7.870;2023-05-09T08:40:59;18.80;99.90
7117;DHT22;3600;48.568;7.870;2023-05-09T08:43:27;18.90;99.90
7117;DHT22;3600;48.568;7.870;2023-05-09T08:45:57;18.90;99.90
7117;DHT22;3600;48.568;7.870;2023-05-09T08:48:27;19.10;99.90
7117;DHT22;3600;48.568;7.870;2023-05-09T08:50:54;19.10;99.90
7117;DHT22;3600;48.568;7.870;2023-05-09T08:53:21;19.30;99.90
7117;DHT22;3600;48.568;7.870;2023-05-09T08:55:51;19.30;99.90
7117;DHT22;3600;48.568;7.870;2023-05-09T08:58:19;19.20;99.90
7117;DHT22;3600;48.568;7.870;2023-05-09T09:00:48;19.30;99.90
7117;DHT22;3600;48.568;7.870;2023-05-09T09:03:16;19.40;99.90
7117;DHT22;3600;48.568;7.870;2023-05-09T09:05:44;19.40;99.90
7117;DHT22;3600;48.568;7.870;2023-05-09T09:08:13;19.30;99.90
7117;DHT22;3600;48.568;7.870;2023-05-09T09:10:41;19.10;99.90
7117;DHT22;3600;48.568;7.870;2023-05-09T09:13:14;18.90;99.90
7117;DHT22;3600;48.568;7.870;2023-05-09T09:15:44;18.80;99.90
7117;DHT22;3600;48.568;7.870;2023-05-09T09:18:15;18.80;99.90
7117;DHT22;3600;48.568;7.870;2023-05-09T09:21:05;18.80;99.90
7117;DHT22;3600;48.568;7.870;2023-05-09T09:23:32;18.70;99.90
7117;DHT22;3600;48.568;7.870;2023-05-09T09:26:02;18.70;99.90
7117;DHT22;3600;48.568;7.870;2023-05-09T09:28:32;18.80;99.90
7117;DHT22;3600;48.568;7.870;2023-05-09T09:31:00;18.90;99.90
7117;DHT22;3600;48.568;7.870;2023-05-09T09:33:28;18.90;99.90
7117;DHT22;3600;48.568;7.870;2023-05-09T09:35:55;19.00;99.90
7117;DHT22;3600;48.568;7.870;2023-05-09T09:38:23;19.10;99.90
7117;DHT22;3600;48.568;7.870;2023-05-09T09:43:18;19.30;99.90
7117;DHT22;3600;48.568;7.870;2023-05-09T09:45:48;19.40;99.90
7117;DHT22;3600;48.568;7.870;2023-05-09T09:48:16;19.50;99.90
7117;DHT22;3600;48.568;7.870;2023-05-09T09:50:46;19.50;99.90
7117;DHT22;3600;48.568;7.870;2023-05-09T09:53:18;19.60;99.90
7117;DHT22;3600;48.568;7.870;2023-05-09T09:55:51;19.60;99.90
7117;DHT22;3600;48.568;7.870;2023-05-09T09:58:20;19.70;99.90
7117;DHT22;3600;48.568;7.870;2023-05-09T10:01:11;19.80;99.90
7117;DHT22;3600;48.568;7.870;2023-05-09T10:03:45;19.90;99.90
7117;DHT22;3600;48.568;7.870;2023-05-09T10:06:14;20.00;99.90
7117;DHT22;3600;48.568;7.870;2023-05-09T10:08:44;20.00;99.90
7117;DHT22;3600;48.568;7.870;2023-05-09T10:11:14;20.00;99.90
7117;DHT22;3600;48.568;7.870;2023-05-09T10:13:42;20.10;99.90
7117;DHT22;3600;48.568;7.870;2023-05-09T10:16:10;20.20;99.90
7117;DHT22;3600;48.568;7.870;2023-05-09T10:18:38;20.20;99.90
7117;DHT22;3600;48.568;7.870;2023-05-09T10:21:10;20.30;99.90
7117;DHT22;3600;48.568;7.870;2023-05-09T10:23:42;20.40;99.90
7117;DHT22;3600;48.568;7.870;2023-05-09T10:26:22;20.40;99.90
7117;DHT22;3600;48.568;7.870;2023-05-09T10:28:56;20.40;99.90
7117;DHT22;3600;48.568;7.870;2023-05-09T10:31:28;20.40;99.90
7117;DHT22;3600;48.568;7.870;2023-05-09T10:34:00;20.30;99.90
7117;DHT22;3600;48.568;7.870;2023-05-09T10:36:29;20.30;99.90
7117;DHT22;3600;48.568;7.870;2023-05-09T10:38:56;20.40;99.90
7117;DHT22;3600;48.568;7.870;2023-05-09T10:41:24;20.40;99.90
7117;DHT22;3600;48.568;7.870;2023-05-09T10:43:51;20.40;99.90
7117;DHT22;3600;48.568;7.870;2023-05-09T10:46:21;20.40;99.90
7117;DHT22;3600;48.568;7.870;2023-05-09T10:48:49;20.40;99.90
7117;DHT22;3600;48.568;7.870;2023-05-09T10:51:16;20.50;99.90
7117;DHT22;3600;48.568;7.870;2023-05-09T10:53:48;20.60;99.90
7117;DHT22;3600;48.568;7.870;2023-05-09T10:56:27;20.70;99.90
7117;DHT22;3600;48.568;7.870;2023-05-09T10:58:54;20.70;99.90
7117;DHT22;3600;48.568;7.870;2023-05-09T11:01:48;20.80;99.90
7117;DHT22;3600;48.568;7.870;2023-05-09T11:04:22;20.80;99.90
7117;DHT22;3600;48.568;7.870;2023-05-09T11:06:51;20.90;99.90
7117;DHT22;3600;48.568;7.870;2023-05-09T11:12:06;21.00;99.90
7117;DHT22;3600;48.568;7.870;2023-05-09T11:14:49;21.10;99.90
7117;DHT22;3600;48.568;7.870;2023-05-09T11:17:28;21.20;99.90
7117;DHT22;3600;48.568;7.870;2023-05-09T11:19:59;21.30;99.90
7117;DHT22;3600;48.568;7.870;2023-05-09T11:22:30;21.30;99.90
7117;DHT22;3600;48.568;7.870;2023-05-09T11:25:10;21.20;99.90
7117;DHT22;3600;48.568;7.870;2023-05-09T11:27:48;21.30;99.90
7117;DHT22;3600;48.568;7.870;2023-05-09T11:30:17;21.40;99.90
7117;DHT22;3600;48.568;7.870;2023-05-09T11:32:46;21.50;99.90
7117;DHT22;3600;48.568;7.870;2023-05-09T11:35:17;21.50;99.90
7117;DHT22;3600;48.568;7.870;2023-05-09T11:37:51;21.50;99.90
7117;DHT22;3600;48.568;7.870;2023-05-09T11:40:21;21.60;99.90
7117;DHT22;3600;48.568;7.870;2023-05-09T11:42:50;21.60;99.90
7117;DHT22;3600;48.568;7.870;2023-05-09T11:45:26;21.60;99.90
7117;DHT22;3600;48.568;7.870;2023-05-09T11:47:53;21.80;99.90
7117;DHT22;3600;48.568;7.870;2023-05-09T11:50:20;21.80;99.90
7117;DHT22;3600;48.568;7.870;2023-05-09T11:52:48;21.80;99.90
7117;DHT22;3600;48.568;7.870;2023-05-09T11:55:19;21.70;99.90
7117;DHT22;3600;48.568;7.870;2023-05-09T11:57:52;21.80;99.90
7117;DHT22;3600;48.568;7.870;2023-05-09T12:00:21;21.80;99.90
7117;DHT22;3600;48.568;7.870;2023-05-09T12:02:49;21.70;99.90
7117;DHT22;3600;48.568;7.870;2023-05-09T12:05:18;21.70;99.90
7117;DHT22;3600;48.568;7.870;2023-05-09T12:07:46;21.80;99.90
7117;DHT22;3600;48.568;7.870;2023-05-09T12:10:22;21.80;99.90
7117;DHT22;3600;48.568;7.870;2023-05-09T12:12:50;21.90;99.90
7117;DHT22;3600;48.568;7.870;2023-05-09T12:15:17;21.90;99.90
7117;DHT22;3600;48.568;7.870;2023-05-09T12:17:45;21.80;99.90
7117;DHT22;3600;48.568;7.870;2023-05-09T12:20:16;21.80;99.90
7117;DHT22;3600;48.568;7.870;2023-05-09T12:22:43;21.80;99.90
7117;DHT22;3600;48.568;7.870;2023-05-09T12:25:10;21.90;99.90
7117;DHT22;3600;48.568;7.870;2023-05-09T12:27:39;21.80;99.90
7117;DHT22;3600;48.568;7.870;2023-05-09T12:30:07;21.90;99.90
7117;DHT22;3600;48.568;7.870;2023-05-09T12:32:37;22.00;99.90
7117;DHT22;3600;48.568;7.870;2023-05-09T12:35:06;22.10;99.90
7117;DHT22;3600;48.568;7.870;2023-05-09T12:37:34;22.10;99.90
7117;DHT22;3600;48.568;7.870;2023-05-09T12:40:11;22.10;99.90
7117;DHT22;3600;48.568;7.870;2023-05-09T12:42:41;22.20;99.90
7117;DHT22;3600;48.568;7.870;2023-05-09T12:45:09;22.30;99.90
7117;DHT22;3600;48.568;7.870;2023-05-09T12:47:36;22.20;99.90
7117;DHT22;3600;48.568;7.870;2023-05-09T12:50:09;22.20;99.90
7117;DHT22;3600;48.568;7.870;2023-05-09T12:52:41;22.20;99.90
7117;DHT22;3600;48.568;7.870;2023-05-09T12:55:28;22.20;99.90
7117;DHT22;3600;48.568;7.870;2023-05-09T12:58:00;22.20;99.90
7117;DHT22;3600;48.568;7.870;2023-05-09T13:00:27;22.30;99.90
7117;DHT22;3600;48.568;7.870;2023-05-09T13:02:54;22.30;99.90
7117;DHT22;3600;48.568;7.870;2023-05-09T13:05:22;22.30;99.90
7117;DHT22;3600;48.568;7.870;2023-05-09T13:07:51;22.30;99.90
7117;DHT22;3600;48.568;7.870;2023-05-09T13:10:26;22.30;99.90
7117;DHT22;3600;48.568;7.870;2023-05-09T13:12:54;22.20;99.90
7117;DHT22;3600;48.568;7.870;2023-05-09T13:15:21;22.10;99.90
7117;DHT22;3600;48.568;7.870;2023-05-09T13:17:50;22.10;99.90
7117;DHT22;3600;48.568;7.870;2023-05-09T13:20:18;22.10;99.90
7117;DHT22;3600;48.568;7.870;2023-05-09T13:22:45;22.10;99.90
7117;DHT22;3600;48.568;7.870;2023-05-09T13:25:12;22.10;99.90
7117;DHT22;3600;48.568;7.870;2023-05-09T13:27:39;22.10;99.90
7117;DHT22;3600;48.568;7.870;2023-05-09T13:30:06;22.10;99.90
7117;DHT22;3600;48.568;7.870;2023-05-09T13:32:34;22.00;99.90
7117;DHT22;3600;48.568;7.870;2023-05-09T13:35:02;22.00;99.90
7117;DHT22;3600;48.568;7.870;2023-05-09T13:37:30;22.00;99.90
7117;DHT22;3600;48.568;7.870;2023-05-09T13:39:56;22.00;99.90
7117;DHT22;3600;48.568;7.870;2023-05-09T13:42:23;22.00;99.90
7117;DHT22;3600;48.568;7.870;2023-05-09T13:44:50;22.00;99.90
7117;DHT22;3600;48.568;7.870;2023-05-09T13:47:16;21.90;99.90
7117;DHT22;3600;48.568;7.870;2023-05-09T13:49:43;21.90;99.90
7117;DHT22;3600;48.568;7.870;2023-05-09T13:52:10;21.80;99.90
7117;DHT22;3600;48.568;7.870;2023-05-09T13:54:36;21.90;99.90
7117;DHT22;3600;48.568;7.870;2023-05-09T13:57:03;21.90;99.90
7117;DHT22;3600;48.568;7.870;2023-05-09T13:59:31;21.80;99.90
7117;DHT22;3600;48.568;7.870;2023-05-09T14:01:58;21.90;99.90
7117;DHT22;3600;48.568;7.870;2023-05-09T14:04:26;21.90;99.90
7117;DHT22;3600;48.568;7.870;2023-05-09T14:06:54;21.90;99.90
7117;DHT22;3600;48.568;7.870;2023-05-09T14:09:21;21.80;99.90
7117;DHT22;3600;48.568;7.870;2023-05-09T14:11:49;21.90;99.90
7117;DHT22;3600;48.568;7.870;2023-05-09T14:14:20;21.80;99.90
7117;DHT22;3600;48.568;7.870;2023-05-09T14:16:48;21.70;99.90
7117;DHT22;3600;48.568;7.870;2023-05-09T14:19:15;21.80;99.90
7117;DHT22;3600;48.568;7.870;2023-05-09T14:21:43;21.70;99.90
7117;DHT22;3600;48.568;7.870;2023-05-09T14:24:10;21.70;99.90
7117;DHT22;3600;48.568;7.870;2023-05-09T14:26:41;21.70;99.90
7117;DHT22;3600;48.568;7.870;2023-05-09T14:29:08;21.60;99.90
7117;DHT22;3600;48.568;7.870;2023-05-09T14:31:35;21.50;99.90
7117;DHT22;3600;48.568;7.870;2023-05-09T14:34:02;21.40;99.90
7117;DHT22;3600;48.568;7.870;2023-05-09T14:36:31;21.40;99.90
7117;DHT22;3600;48.568;7.870;2023-05-09T14:38:58;21.40;99.90
7117;DHT22;3600;48.568;7.870;2023-05-09T14:41:25;21.40;99.90
7117;DHT22;3600;48.568;7.870;2023-05-09T14:43:52;21.30;99.90
7117;DHT22;3600;48.568;7.870;2023-05-09T14:46:18;21.20;99.90
7117;DHT22;3600;48.568;7.870;2023-05-09T14:48:45;21.20;99.90
7117;DHT22;3600;48.568;7.870;2023-05-09T14:51:12;21.20;99.90
7117;DHT22;3600;48.568;7.870;2023-05-09T14:53:39;21.20;99.90
7117;DHT22;3600;48.568;7.870;2023-05-09T14:56:08;21.10;99.90
7117;DHT22;3600;48.568;7.870;2023-05-09T14:58:36;21.10;99.90
7117;DHT22;3600;48.568;7.870;2023-05-09T15:01:03;21.10;99.90
7117;DHT22;3600;48.568;7.870;2023-05-09T15:03:30;21.10;99.90
7117;DHT22;3600;48.568;7.870;2023-05-09T15:05:57;21.10;99.90
7117;DHT22;3600;48.568;7.870;2023-05-09T15:08:24;21.00;99.90
7117;DHT22;3600;48.568;7.870;2023-05-09T15:10:52;21.00;99.90
7117;DHT22;3600;48.568;7.870;2023-05-09T15:13:18;20.90;99.90
7117;DHT22;3600;48.568;7.870;2023-05-09T15:15:46;20.80;99.90
7117;DHT22;3600;48.568;7.870;2023-05-09T15:18:13;20.80;99.90
7117;DHT22;3600;48.568;7.870;2023-05-09T15:20:42;20.70;99.90
7117;DHT22;3600;48.568;7.870;2023-05-09T15:23:10;20.70;99.90
7117;DHT22;3600;48.568;7.870;2023-05-09T15:25:41;20.60;99.90
7117;DHT22;3600;48.568;7.870;2023-05-09T15:28:07;20.50;99.90
7117;DHT22;3600;48.568;7.870;2023-05-09T15:30:34;20.40;99.90
7117;DHT22;3600;48.568;7.870;2023-05-09T15:33:04;20.40;99.90
7117;DHT22;3600;48.568;7.870;2023-05-09T15:35:31;20.30;99.90
7117;DHT22;3600;48.568;7.870;2023-05-09T15:37:58;20.10;99.90
7117;DHT22;3600;48.568;7.870;2023-05-09T15:40:25;19.90;99.90
7117;DHT22;3600;48.568;7.870;2023-05-09T15:42:51;19.60;99.90
7117;DHT22;3600;48.568;7.870;2023-05-09T15:45:18;19.20;99.90
7117;DHT22;3600;48.568;7.870;2023-05-09T15:47:45;19.00;99.90
7117;DHT22;3600;48.568;7.870;2023-05-09T15:50:12;18.80;99.90
7117;DHT22;3600;48.568;7.870;2023-05-09T15:52:38;18.70;99.90
7117;DHT22;3600;48.568;7.870;2023-05-09T15:55:06;18.50;99.90
7117;DHT22;3600;48.568;7.870;2023-05-09T15:57:33;18.40;99.90
7117;DHT22;3600;48.568;7.870;2023-05-09T16:00:00;18.20;99.90
7117;DHT22;3600;48.568;7.870;2023-05-09T16:02:27;18.30;99.90
7117;DHT22;3600;48.568;7.870;2023-05-09T16:04:54;18.30;99.90
7117;DHT22;3600;48.568;7.870;2023-05-09T16:07:21;18.20;99.90
7117;DHT22;3600;48.568;7.870;2023-05-09T16:09:48;18.30;99.90
7117;DHT22;3600;48.568;7.870;2023-05-09T16:12:14;18.20;99.90
7117;DHT22;3600;48.568;7.870;2023-05-09T16:14:41;18.20;99.90
7117;DHT22;3600;48.568;7.870;2023-05-09T16:17:08;18.20;99.90
7117;DHT22;3600;48.568;7.870;2023-05-09T16:19:35;18.20;99.90
7117;DHT22;3600;48.568;7.870;2023-05-09T16:22:02;18.20;99.90
7117;DHT22;3600;48.568;7.870;2023-05-09T16:24:28;18.10;99.90
7117;DHT22;3600;48.568;7.870;2023-05-09T16:26:57;18.00;99.90